Etusivu
METAR-TAF:

METAR-TAF

Lentoasemat :

Öljynporauslautta

P11-b, Alankomaat

Leveyspiiri: 52-21-36N, Pituuspiiri: 3-20-30E, korkeus merenpinnasta: 24 m

Tämänhetkinen sää

Tämä raportti tehtiin 29 minuuttia sitten, kello 19.25 UTC
Tuuli 11 kn idästä/koillisesta
Lämpötila 19°C
Kosteus 94%
Ilmanpaine 1023 hPa
Näkyvyys 10 km tai enemmän

METAR: EHPG 231925Z AUTO 07011KT 9999 NCD 19/18 Q1023 W///H///

Aika: 21:54 (19:54 UTC)


TAF: puuttuu

Säähavainnot ja -ennusteet yli 4000 lentoasemalta (METAR- ja TAF-raportit).

Käytössä olevat sääasemat on merkitty karttaan keltaisilla ja punaisilla pisteillä.

Aseta hiiri pisteen päälle nähdäksesi sääaseman nimen.

Klikkaa sitten nähdäksesi säähavainnot ja -ennusteet.

Kartan vaihtaminen: klikkaa mustalla rastilla varustettuja vihreitä pisteitä, niin voit zoomata sisään; viivalla varustettua vihreää pistettä, niin voit zoomata ulos tai vihreitä nuolia, niin pääset viereisille kartoille.


METAR-TAF: